sensor_id;sensor_type;location;lat;lon;timestamp;temperature;humidity
25112;DHT22;13092;51.996;4.458;2023-07-20T00:02:20;18.30;99.90
25112;DHT22;13092;51.996;4.458;2023-07-20T00:04:49;18.30;99.90
25112;DHT22;13092;51.996;4.458;2023-07-20T00:07:18;18.20;99.90
25112;DHT22;13092;51.996;4.458;2023-07-20T00:09:49;18.20;99.90
25112;DHT22;13092;51.996;4.458;2023-07-20T00:12:18;18.10;99.90
25112;DHT22;13092;51.996;4.458;2023-07-20T00:14:46;17.90;99.90
25112;DHT22;13092;51.996;4.458;2023-07-20T00:17:20;18.00;99.90
25112;DHT22;13092;51.996;4.458;2023-07-20T00:19:50;18.00;99.90
25112;DHT22;13092;51.996;4.458;2023-07-20T00:22:19;17.90;99.90
25112;DHT22;13092;51.996;4.458;2023-07-20T00:24:49;17.90;99.90
25112;DHT22;13092;51.996;4.458;2023-07-20T00:27:20;17.90;99.90
25112;DHT22;13092;51.996;4.458;2023-07-20T00:29:49;18.10;99.90
25112;DHT22;13092;51.996;4.458;2023-07-20T00:32:20;18.00;99.90
25112;DHT22;13092;51.996;4.458;2023-07-20T00:34:52;18.00;99.90
25112;DHT22;13092;51.996;4.458;2023-07-20T00:37:21;17.90;99.90
25112;DHT22;13092;51.996;4.458;2023-07-20T00:39:49;17.80;99.90
25112;DHT22;13092;51.996;4.458;2023-07-20T00:42:21;17.80;99.90
25112;DHT22;13092;51.996;4.458;2023-07-20T00:44:49;17.80;99.90
25112;DHT22;13092;51.996;4.458;2023-07-20T00:47:17;17.80;99.90
25112;DHT22;13092;51.996;4.458;2023-07-20T00:49:49;17.70;99.90
25112;DHT22;13092;51.996;4.458;2023-07-20T00:52:21;17.80;99.90
25112;DHT22;13092;51.996;4.458;2023-07-20T00:54:52;17.70;99.90
25112;DHT22;13092;51.996;4.458;2023-07-20T00:57:24;17.70;99.90
25112;DHT22;13092;51.996;4.458;2023-07-20T00:59:53;17.70;99.90
25112;DHT22;13092;51.996;4.458;2023-07-20T01:02:21;17.60;99.90
25112;DHT22;13092;51.996;4.458;2023-07-20T01:04:50;17.60;99.90
25112;DHT22;13092;51.996;4.458;2023-07-20T01:07:25;17.60;99.90
25112;DHT22;13092;51.996;4.458;2023-07-20T01:10:01;17.70;99.90
25112;DHT22;13092;51.996;4.458;2023-07-20T01:12:40;17.70;99.90
25112;DHT22;13092;51.996;4.458;2023-07-20T01:15:09;17.60;99.90
25112;DHT22;13092;51.996;4.458;2023-07-20T01:17:39;17.50;99.90
25112;DHT22;13092;51.996;4.458;2023-07-20T01:20:12;17.50;99.90
25112;DHT22;13092;51.996;4.458;2023-07-20T01:23:00;17.50;99.90
25112;DHT22;13092;51.996;4.458;2023-07-20T01:28:53;17.40;99.90
25112;DHT22;13092;51.996;4.458;2023-07-20T01:31:28;17.40;99.90
25112;DHT22;13092;51.996;4.458;2023-07-20T01:34:00;17.50;99.90
25112;DHT22;13092;51.996;4.458;2023-07-20T01:36:30;17.50;99.90
25112;DHT22;13092;51.996;4.458;2023-07-20T01:39:01;17.50;99.90
25112;DHT22;13092;51.996;4.458;2023-07-20T01:41:31;17.60;99.90
25112;DHT22;13092;51.996;4.458;2023-07-20T01:44:00;17.60;99.90
25112;DHT22;13092;51.996;4.458;2023-07-20T01:46:32;17.60;99.90
25112;DHT22;13092;51.996;4.458;2023-07-20T01:49:02;17.50;99.90
25112;DHT22;13092;51.996;4.458;2023-07-20T01:51:31;17.60;99.90
25112;DHT22;13092;51.996;4.458;2023-07-20T01:53:59;17.60;99.90
25112;DHT22;13092;51.996;4.458;2023-07-20T01:56:28;17.50;99.90
25112;DHT22;13092;51.996;4.458;2023-07-20T01:58:56;17.50;99.90
25112;DHT22;13092;51.996;4.458;2023-07-20T02:01:24;17.50;99.90
25112;DHT22;13092;51.996;4.458;2023-07-20T02:03:57;17.60;99.90
25112;DHT22;13092;51.996;4.458;2023-07-20T02:06:25;17.60;99.90
25112;DHT22;13092;51.996;4.458;2023-07-20T02:08:53;17.50;99.90
25112;DHT22;13092;51.996;4.458;2023-07-20T02:11:22;17.50;99.90
25112;DHT22;13092;51.996;4.458;2023-07-20T02:13:50;17.50;99.90
25112;DHT22;13092;51.996;4.458;2023-07-20T02:16:21;17.40;99.90
25112;DHT22;13092;51.996;4.458;2023-07-20T02:18:54;17.50;99.90
25112;DHT22;13092;51.996;4.458;2023-07-20T02:21:25;17.40;99.90
25112;DHT22;13092;51.996;4.458;2023-07-20T02:23:53;17.40;99.90
25112;DHT22;13092;51.996;4.458;2023-07-20T02:26:22;17.50;99.90
25112;DHT22;13092;51.996;4.458;2023-07-20T02:28:51;17.30;99.90
25112;DHT22;13092;51.996;4.458;2023-07-20T02:31:20;17.30;99.90
25112;DHT22;13092;51.996;4.458;2023-07-20T02:33:50;17.30;99.90
25112;DHT22;13092;51.996;4.458;2023-07-20T02:36:19;17.30;99.90
25112;DHT22;13092;51.996;4.458;2023-07-20T02:38:50;17.30;99.90
25112;DHT22;13092;51.996;4.458;2023-07-20T02:41:22;17.20;99.90
25112;DHT22;13092;51.996;4.458;2023-07-20T02:43:54;17.40;99.90
25112;DHT22;13092;51.996;4.458;2023-07-20T02:46:23;17.40;99.90
25112;DHT22;13092;51.996;4.458;2023-07-20T02:48:52;17.40;99.90
25112;DHT22;13092;51.996;4.458;2023-07-20T02:51:23;17.40;99.90
25112;DHT22;13092;51.996;4.458;2023-07-20T02:53:55;17.40;99.90
25112;DHT22;13092;51.996;4.458;2023-07-20T02:56:24;17.40;99.90
25112;DHT22;13092;51.996;4.458;2023-07-20T02:58:54;17.40;99.90
25112;DHT22;13092;51.996;4.458;2023-07-20T03:01:24;17.30;99.90
25112;DHT22;13092;51.996;4.458;2023-07-20T03:03:56;17.30;99.90
25112;DHT22;13092;51.996;4.458;2023-07-20T03:06:25;17.30;99.90
25112;DHT22;13092;51.996;4.458;2023-07-20T03:08:54;17.30;99.90
25112;DHT22;13092;51.996;4.458;2023-07-20T03:11:23;17.30;99.90
25112;DHT22;13092;51.996;4.458;2023-07-20T03:13:52;17.20;99.90
25112;DHT22;13092;51.996;4.458;2023-07-20T03:16:23;17.20;99.90
25112;DHT22;13092;51.996;4.458;2023-07-20T03:18:52;17.20;99.90
25112;DHT22;13092;51.996;4.458;2023-07-20T03:21:23;17.20;99.90
25112;DHT22;13092;51.996;4.458;2023-07-20T03:23:56;17.20;99.90
25112;DHT22;13092;51.996;4.458;2023-07-20T03:26:24;17.20;99.90
25112;DHT22;13092;51.996;4.458;2023-07-20T03:28:53;17.10;99.90
25112;DHT22;13092;51.996;4.458;2023-07-20T03:31:24;17.10;99.90
25112;DHT22;13092;51.996;4.458;2023-07-20T03:33:52;17.10;99.90
25112;DHT22;13092;51.996;4.458;2023-07-20T03:36:21;17.10;99.90
25112;DHT22;13092;51.996;4.458;2023-07-20T03:38:50;17.00;99.90
25112;DHT22;13092;51.996;4.458;2023-07-20T03:41:23;17.10;99.90
25112;DHT22;13092;51.996;4.458;2023-07-20T03:43:52;17.10;99.90
25112;DHT22;13092;51.996;4.458;2023-07-20T03:46:23;17.00;99.90
25112;DHT22;13092;51.996;4.458;2023-07-20T03:48:52;17.00;99.90
25112;DHT22;13092;51.996;4.458;2023-07-20T03:51:23;16.90;99.90
25112;DHT22;13092;51.996;4.458;2023-07-20T03:53:54;16.90;99.90
25112;DHT22;13092;51.996;4.458;2023-07-20T03:56:27;16.80;99.90
25112;DHT22;13092;51.996;4.458;2023-07-20T03:58:55;17.00;99.90
25112;DHT22;13092;51.996;4.458;2023-07-20T04:01:24;17.00;99.90
25112;DHT22;13092;51.996;4.458;2023-07-20T04:03:52;17.00;99.90
25112;DHT22;13092;51.996;4.458;2023-07-20T04:06:24;17.00;99.90
25112;DHT22;13092;51.996;4.458;2023-07-20T04:08:52;17.00;99.90
25112;DHT22;13092;51.996;4.458;2023-07-20T04:11:23;17.10;99.90
25112;DHT22;13092;51.996;4.458;2023-07-20T04:13:56;17.00;99.90
25112;DHT22;13092;51.996;4.458;2023-07-20T04:16:24;17.00;99.90
25112;DHT22;13092;51.996;4.458;2023-07-20T04:18:54;17.00;99.90
25112;DHT22;13092;51.996;4.458;2023-07-20T04:21:25;16.90;99.90
25112;DHT22;13092;51.996;4.458;2023-07-20T04:23:54;17.00;99.90
25112;DHT22;13092;51.996;4.458;2023-07-20T04:26:24;17.00;99.90
25112;DHT22;13092;51.996;4.458;2023-07-20T04:28:52;16.90;99.90
25112;DHT22;13092;51.996;4.458;2023-07-20T04:31:24;16.90;99.90
25112;DHT22;13092;51.996;4.458;2023-07-20T04:33:52;16.90;99.90
25112;DHT22;13092;51.996;4.458;2023-07-20T04:36:23;16.90;99.90
25112;DHT22;13092;51.996;4.458;2023-07-20T04:38:55;16.90;99.90
25112;DHT22;13092;51.996;4.458;2023-07-20T04:41:23;16.90;99.90
25112;DHT22;13092;51.996;4.458;2023-07-20T04:43:55;17.00;99.90
25112;DHT22;13092;51.996;4.458;2023-07-20T04:46:24;17.00;99.90
25112;DHT22;13092;51.996;4.458;2023-07-20T04:48:53;17.00;99.90
25112;DHT22;13092;51.996;4.458;2023-07-20T04:51:25;17.00;99.90
25112;DHT22;13092;51.996;4.458;2023-07-20T04:53:53;17.00;99.90
25112;DHT22;13092;51.996;4.458;2023-07-20T04:56:24;17.00;99.90
25112;DHT22;13092;51.996;4.458;2023-07-20T04:58:53;17.00;99.90
25112;DHT22;13092;51.996;4.458;2023-07-20T05:01:25;17.00;99.90
25112;DHT22;13092;51.996;4.458;2023-07-20T05:03:54;17.00;99.90
25112;DHT22;13092;51.996;4.458;2023-07-20T05:06:23;17.10;99.90
25112;DHT22;13092;51.996;4.458;2023-07-20T05:08:54;17.10;99.90
25112;DHT22;13092;51.996;4.458;2023-07-20T05:11:23;17.10;99.90
25112;DHT22;13092;51.996;4.458;2023-07-20T05:13:54;17.30;99.90
25112;DHT22;13092;51.996;4.458;2023-07-20T05:16:26;17.30;99.90
25112;DHT22;13092;51.996;4.458;2023-07-20T05:19:09;17.40;99.90
25112;DHT22;13092;51.996;4.458;2023-07-20T05:21:38;17.40;99.90
25112;DHT22;13092;51.996;4.458;2023-07-20T05:24:11;17.50;99.90
25112;DHT22;13092;51.996;4.458;2023-07-20T05:26:40;17.60;99.90
25112;DHT22;13092;51.996;4.458;2023-07-20T05:29:18;17.60;99.90
25112;DHT22;13092;51.996;4.458;2023-07-20T05:31:56;17.70;99.90
25112;DHT22;13092;51.996;4.458;2023-07-20T05:34:28;17.70;99.90
25112;DHT22;13092;51.996;4.458;2023-07-20T05:37:13;17.60;99.90
25112;DHT22;13092;51.996;4.458;2023-07-20T05:39:42;17.80;99.90
25112;DHT22;13092;51.996;4.458;2023-07-20T05:42:11;17.90;99.90
25112;DHT22;13092;51.996;4.458;2023-07-20T05:44:42;17.90;99.90
25112;DHT22;13092;51.996;4.458;2023-07-20T05:47:13;18.00;99.90
25112;DHT22;13092;51.996;4.458;2023-07-20T05:49:41;18.00;99.90
25112;DHT22;13092;51.996;4.458;2023-07-20T05:52:10;18.10;99.90
25112;DHT22;13092;51.996;4.458;2023-07-20T05:54:39;18.20;99.90
25112;DHT22;13092;51.996;4.458;2023-07-20T05:57:07;18.30;99.90
25112;DHT22;13092;51.996;4.458;2023-07-20T05:59:36;18.40;99.90
25112;DHT22;13092;51.996;4.458;2023-07-20T06:02:05;18.40;99.90
25112;DHT22;13092;51.996;4.458;2023-07-20T06:04:35;18.50;99.90
25112;DHT22;13092;51.996;4.458;2023-07-20T06:07:04;18.60;99.90
25112;DHT22;13092;51.996;4.458;2023-07-20T06:09:34;18.60;99.90
25112;DHT22;13092;51.996;4.458;2023-07-20T06:12:04;18.60;99.90
25112;DHT22;13092;51.996;4.458;2023-07-20T06:14:35;18.70;99.90
25112;DHT22;13092;51.996;4.458;2023-07-20T06:17:05;18.70;99.90
25112;DHT22;13092;51.996;4.458;2023-07-20T06:19:36;18.70;99.90
25112;DHT22;13092;51.996;4.458;2023-07-20T06:22:05;18.70;99.90
25112;DHT22;13092;51.996;4.458;2023-07-20T06:24:34;18.80;99.90
25112;DHT22;13092;51.996;4.458;2023-07-20T06:27:08;19.00;99.90
25112;DHT22;13092;51.996;4.458;2023-07-20T06:29:36;19.00;99.90
25112;DHT22;13092;51.996;4.458;2023-07-20T06:32:24;19.10;99.90
25112;DHT22;13092;51.996;4.458;2023-07-20T06:34:57;19.00;99.90
25112;DHT22;13092;51.996;4.458;2023-07-20T06:37:28;19.00;99.90
25112;DHT22;13092;51.996;4.458;2023-07-20T06:39:57;19.20;99.90
25112;DHT22;13092;51.996;4.458;2023-07-20T06:42:28;19.20;99.90
25112;DHT22;13092;51.996;4.458;2023-07-20T06:45:16;19.20;99.90
25112;DHT22;13092;51.996;4.458;2023-07-20T06:47:58;19.30;99.90
25112;DHT22;13092;51.996;4.458;2023-07-20T06:50:29;19.40;99.90
25112;DHT22;13092;51.996;4.458;2023-07-20T06:52:58;19.50;99.90
25112;DHT22;13092;51.996;4.458;2023-07-20T06:55:26;19.60;99.90
25112;DHT22;13092;51.996;4.458;2023-07-20T06:57:57;19.70;99.90
25112;DHT22;13092;51.996;4.458;2023-07-20T07:00:25;19.70;99.90
25112;DHT22;13092;51.996;4.458;2023-07-20T07:02:53;19.80;99.90
25112;DHT22;13092;51.996;4.458;2023-07-20T07:05:24;19.80;99.90
25112;DHT22;13092;51.996;4.458;2023-07-20T07:08:04;19.60;99.90
25112;DHT22;13092;51.996;4.458;2023-07-20T07:10:33;19.60;99.90
25112;DHT22;13092;51.996;4.458;2023-07-20T07:13:06;19.60;99.90
25112;DHT22;13092;51.996;4.458;2023-07-20T07:15:35;19.70;99.90
25112;DHT22;13092;51.996;4.458;2023-07-20T07:18:05;19.70;99.90
25112;DHT22;13092;51.996;4.458;2023-07-20T07:20:36;19.80;99.90
25112;DHT22;13092;51.996;4.458;2023-07-20T07:23:16;19.80;99.90
25112;DHT22;13092;51.996;4.458;2023-07-20T07:25:45;19.70;99.90
25112;DHT22;13092;51.996;4.458;2023-07-20T07:28:13;19.60;99.90
25112;DHT22;13092;51.996;4.458;2023-07-20T07:30:41;19.70;99.90
25112;DHT22;13092;51.996;4.458;2023-07-20T07:33:09;19.80;99.90
25112;DHT22;13092;51.996;4.458;2023-07-20T07:35:38;19.90;99.90
25112;DHT22;13092;51.996;4.458;2023-07-20T07:38:07;19.90;99.90
25112;DHT22;13092;51.996;4.458;2023-07-20T07:40:57;19.90;99.90
25112;DHT22;13092;51.996;4.458;2023-07-20T07:43:25;20.20;99.90
25112;DHT22;13092;51.996;4.458;2023-07-20T07:45:55;20.30;99.90
25112;DHT22;13092;51.996;4.458;2023-07-20T07:48:24;20.40;99.90
25112;DHT22;13092;51.996;4.458;2023-07-20T07:50:55;20.50;99.90
25112;DHT22;13092;51.996;4.458;2023-07-20T07:53:23;20.40;99.90
25112;DHT22;13092;51.996;4.458;2023-07-20T07:55:57;20.30;99.90
25112;DHT22;13092;51.996;4.458;2023-07-20T07:58:25;20.50;99.90
25112;DHT22;13092;51.996;4.458;2023-07-20T08:00:56;20.50;99.90
25112;DHT22;13092;51.996;4.458;2023-07-20T08:03:27;20.60;99.90
25112;DHT22;13092;51.996;4.458;2023-07-20T08:05:56;20.70;99.90
25112;DHT22;13092;51.996;4.458;2023-07-20T08:08:25;20.60;99.90
25112;DHT22;13092;51.996;4.458;2023-07-20T08:10:54;20.40;99.90
25112;DHT22;13092;51.996;4.458;2023-07-20T08:13:24;20.10;99.90
25112;DHT22;13092;51.996;4.458;2023-07-20T08:15:53;19.90;99.90
25112;DHT22;13092;51.996;4.458;2023-07-20T08:18:26;19.70;99.90
25112;DHT22;13092;51.996;4.458;2023-07-20T08:20:54;19.70;99.90
25112;DHT22;13092;51.996;4.458;2023-07-20T08:23:23;19.60;99.90
25112;DHT22;13092;51.996;4.458;2023-07-20T08:25:54;19.50;99.90
25112;DHT22;13092;51.996;4.458;2023-07-20T08:28:26;19.40;99.90
25112;DHT22;13092;51.996;4.458;2023-07-20T08:30:56;19.40;99.90
25112;DHT22;13092;51.996;4.458;2023-07-20T08:33:24;19.40;99.90
25112;DHT22;13092;51.996;4.458;2023-07-20T08:35:56;19.50;99.90
25112;DHT22;13092;51.996;4.458;2023-07-20T08:38:27;19.60;99.90
25112;DHT22;13092;51.996;4.458;2023-07-20T08:40:55;19.70;99.90
25112;DHT22;13092;51.996;4.458;2023-07-20T08:43:28;19.70;99.90
25112;DHT22;13092;51.996;4.458;2023-07-20T08:45:57;19.90;99.90
25112;DHT22;13092;51.996;4.458;2023-07-20T08:48:27;20.00;99.90
25112;DHT22;13092;51.996;4.458;2023-07-20T08:50:55;20.20;99.90
25112;DHT22;13092;51.996;4.458;2023-07-20T08:53:28;20.30;99.90
25112;DHT22;13092;51.996;4.458;2023-07-20T08:55:58;20.50;99.90
25112;DHT22;13092;51.996;4.458;2023-07-20T08:58:29;20.60;99.90
25112;DHT22;13092;51.996;4.458;2023-07-20T09:00:58;20.80;99.90
25112;DHT22;13092;51.996;4.458;2023-07-20T09:03:28;21.20;99.90
25112;DHT22;13092;51.996;4.458;2023-07-20T09:05:56;21.20;99.90
25112;DHT22;13092;51.996;4.458;2023-07-20T09:08:24;21.30;99.90
25112;DHT22;13092;51.996;4.458;2023-07-20T09:10:55;21.40;99.90
25112;DHT22;13092;51.996;4.458;2023-07-20T09:13:25;21.60;99.90
25112;DHT22;13092;51.996;4.458;2023-07-20T09:15:56;21.80;99.90
25112;DHT22;13092;51.996;4.458;2023-07-20T09:18:27;21.90;99.90
25112;DHT22;13092;51.996;4.458;2023-07-20T09:20:58;22.10;99.90
25112;DHT22;13092;51.996;4.458;2023-07-20T09:23:31;22.20;99.90
25112;DHT22;13092;51.996;4.458;2023-07-20T09:26:00;22.30;99.90
25112;DHT22;13092;51.996;4.458;2023-07-20T09:28:28;22.40;99.90
25112;DHT22;13092;51.996;4.458;2023-07-20T09:31:15;22.30;99.90
25112;DHT22;13092;51.996;4.458;2023-07-20T09:33:44;22.30;99.90
25112;DHT22;13092;51.996;4.458;2023-07-20T09:36:15;22.30;99.90
25112;DHT22;13092;51.996;4.458;2023-07-20T09:39:06;22.20;99.90
25112;DHT22;13092;51.996;4.458;2023-07-20T09:41:40;22.10;99.90
25112;DHT22;13092;51.996;4.458;2023-07-20T09:44:14;22.20;99.90
25112;DHT22;13092;51.996;4.458;2023-07-20T09:46:47;22.30;99.90
25112;DHT22;13092;51.996;4.458;2023-07-20T09:49:26;22.60;99.90
25112;DHT22;13092;51.996;4.458;2023-07-20T09:52:05;22.90;99.90
25112;DHT22;13092;51.996;4.458;2023-07-20T09:54:34;23.10;99.90
25112;DHT22;13092;51.996;4.458;2023-07-20T09:57:17;23.30;99.90
25112;DHT22;13092;51.996;4.458;2023-07-20T09:59:46;23.40;99.90
25112;DHT22;13092;51.996;4.458;2023-07-20T10:03:33;23.30;99.90
25112;DHT22;13092;51.996;4.458;2023-07-20T10:09:42;23.70;99.90
25112;DHT22;13092;51.996;4.458;2023-07-20T10:16:55;23.40;99.90
25112;DHT22;13092;51.996;4.458;2023-07-20T10:20:00;23.20;99.90
25112;DHT22;13092;51.996;4.458;2023-07-20T10:23:15;23.20;99.90
25112;DHT22;13092;51.996;4.458;2023-07-20T10:26:01;23.20;99.90
25112;DHT22;13092;51.996;4.458;2023-07-20T10:47:45;23.70;99.90
25112;DHT22;13092;51.996;4.458;2023-07-20T11:09:33;23.90;99.90
25112;DHT22;13092;51.996;4.458;2023-07-20T11:14:40;23.80;99.90
25112;DHT22;13092;51.996;4.458;2023-07-20T11:36:32;24.30;99.90
25112;DHT22;13092;51.996;4.458;2023-07-20T11:39:44;24.40;99.90
25112;DHT22;13092;51.996;4.458;2023-07-20T11:47:09;24.90;99.90
25112;DHT22;13092;51.996;4.458;2023-07-20T11:57:27;25.30;99.90
25112;DHT22;13092;51.996;4.458;2023-07-20T12:00:17;24.90;99.90
25112;DHT22;13092;51.996;4.458;2023-07-20T12:10:32;24.70;99.90
25112;DHT22;13092;51.996;4.458;2023-07-20T12:13:49;24.70;99.90
25112;DHT22;13092;51.996;4.458;2023-07-20T12:19:44;25.00;99.90
25112;DHT22;13092;51.996;4.458;2023-07-20T12:21:37;25.30;99.90
25112;DHT22;13092;51.996;4.458;2023-07-20T12:39:46;24.90;99.90
25112;DHT22;13092;51.996;4.458;2023-07-20T13:58:02;24.00;99.90
25112;DHT22;13092;51.996;4.458;2023-07-20T14:01:27;24.00;99.90
25112;DHT22;13092;51.996;4.458;2023-07-20T14:04:43;24.20;99.90
25112;DHT22;13092;51.996;4.458;2023-07-20T14:09:26;24.40;99.90
25112;DHT22;13092;51.996;4.458;2023-07-20T14:12:03;24.40;99.90
25112;DHT22;13092;51.996;4.458;2023-07-20T14:15:43;24.60;99.90
25112;DHT22;13092;51.996;4.458;2023-07-20T14:19:07;24.70;99.90
25112;DHT22;13092;51.996;4.458;2023-07-20T14:22:29;24.70;99.90
25112;DHT22;13092;51.996;4.458;2023-07-20T14:33:05;24.80;99.90
25112;DHT22;13092;51.996;4.458;2023-07-20T14:36:29;24.60;99.90
25112;DHT22;13092;51.996;4.458;2023-07-20T14:53:12;24.30;99.90
25112;DHT22;13092;51.996;4.458;2023-07-20T15:00:08;24.10;99.90
25112;DHT22;13092;51.996;4.458;2023-07-20T15:10:38;23.90;99.90
25112;DHT22;13092;51.996;4.458;2023-07-20T15:13:38;23.90;99.90
25112;DHT22;13092;51.996;4.458;2023-07-20T15:20:17;23.70;99.90
25112;DHT22;13092;51.996;4.458;2023-07-20T15:23:28;23.40;99.90
25112;DHT22;13092;51.996;4.458;2023-07-20T15:34:31;23.70;99.90
25112;DHT22;13092;51.996;4.458;2023-07-20T15:35:46;24.00;99.90
25112;DHT22;13092;51.996;4.458;2023-07-20T15:38:39;23.90;99.90
25112;DHT22;13092;51.996;4.458;2023-07-20T15:41:21;23.80;99.90
25112;DHT22;13092;51.996;4.458;2023-07-20T15:44:50;23.80;99.90
25112;DHT22;13092;51.996;4.458;2023-07-20T15:47:50;23.90;99.90
25112;DHT22;13092;51.996;4.458;2023-07-20T15:54:12;23.80;99.90
25112;DHT22;13092;51.996;4.458;2023-07-20T15:57:23;23.90;99.90
25112;DHT22;13092;51.996;4.458;2023-07-20T16:01:00;24.10;99.90
25112;DHT22;13092;51.996;4.458;2023-07-20T16:03:46;24.00;99.90
25112;DHT22;13092;51.996;4.458;2023-07-20T16:10:33;24.20;99.90
25112;DHT22;13092;51.996;4.458;2023-07-20T16:13:26;24.30;99.90
25112;DHT22;13092;51.996;4.458;2023-07-20T16:16:14;24.10;99.90
25112;DHT22;13092;51.996;4.458;2023-07-20T16:19:10;23.90;99.90
25112;DHT22;13092;51.996;4.458;2023-07-20T16:22:16;24.00;99.90
25112;DHT22;13092;51.996;4.458;2023-07-20T16:25:06;23.80;99.90
25112;DHT22;13092;51.996;4.458;2023-07-20T16:27:43;24.00;99.90
25112;DHT22;13092;51.996;4.458;2023-07-20T16:30:19;24.10;99.90
25112;DHT22;13092;51.996;4.458;2023-07-20T16:33:07;24.20;99.90
25112;DHT22;13092;51.996;4.458;2023-07-20T16:35:44;24.30;99.90
25112;DHT22;13092;51.996;4.458;2023-07-20T16:39:16;24.30;99.90
25112;DHT22;13092;51.996;4.458;2023-07-20T16:41:40;24.50;99.90
25112;DHT22;13092;51.996;4.458;2023-07-20T16:44:17;24.50;99.90
25112;DHT22;13092;51.996;4.458;2023-07-20T16:47:17;24.40;99.90
25112;DHT22;13092;51.996;4.458;2023-07-20T16:50:36;24.10;99.90
25112;DHT22;13092;51.996;4.458;2023-07-20T16:53:31;23.70;99.90
25112;DHT22;13092;51.996;4.458;2023-07-20T16:59:34;24.10;99.90
25112;DHT22;13092;51.996;4.458;2023-07-20T17:02:06;24.30;99.90
25112;DHT22;13092;51.996;4.458;2023-07-20T17:08:01;24.40;99.90
25112;DHT22;13092;51.996;4.458;2023-07-20T17:10:36;24.40;99.90
25112;DHT22;13092;51.996;4.458;2023-07-20T17:13:13;24.40;99.90
25112;DHT22;13092;51.996;4.458;2023-07-20T17:16:00;24.40;99.90
25112;DHT22;13092;51.996;4.458;2023-07-20T17:19:27;24.40;99.90
25112;DHT22;13092;51.996;4.458;2023-07-20T17:22:17;24.30;99.90
25112;DHT22;13092;51.996;4.458;2023-07-20T17:25:10;24.10;99.90
25112;DHT22;13092;51.996;4.458;2023-07-20T17:28:06;24.00;99.90
25112;DHT22;13092;51.996;4.458;2023-07-20T17:30:41;24.10;99.90
25112;DHT22;13092;51.996;4.458;2023-07-20T17:33:14;24.30;99.90
25112;DHT22;13092;51.996;4.458;2023-07-20T17:35:43;24.50;99.90
25112;DHT22;13092;51.996;4.458;2023-07-20T17:38:14;24.80;99.90
25112;DHT22;13092;51.996;4.458;2023-07-20T17:40:45;24.80;99.90
25112;DHT22;13092;51.996;4.458;2023-07-20T17:43:13;24.90;99.90
25112;DHT22;13092;51.996;4.458;2023-07-20T17:45:42;24.90;99.90
25112;DHT22;13092;51.996;4.458;2023-07-20T17:48:11;24.70;99.90
25112;DHT22;13092;51.996;4.458;2023-07-20T17:50:39;24.90;99.90
25112;DHT22;13092;51.996;4.458;2023-07-20T17:53:14;25.10;99.90
25112;DHT22;13092;51.996;4.458;2023-07-20T17:55:44;25.00;99.90
25112;DHT22;13092;51.996;4.458;2023-07-20T17:58:14;24.70;99.90
25112;DHT22;13092;51.996;4.458;2023-07-20T18:00:44;24.70;99.90
25112;DHT22;13092;51.996;4.458;2023-07-20T18:03:14;24.50;99.90
25112;DHT22;13092;51.996;4.458;2023-07-20T18:05:42;24.20;99.90
25112;DHT22;13092;51.996;4.458;2023-07-20T18:08:11;24.10;99.90
25112;DHT22;13092;51.996;4.458;2023-07-20T18:10:39;24.20;99.90
25112;DHT22;13092;51.996;4.458;2023-07-20T18:13:10;23.90;99.90
25112;DHT22;13092;51.996;4.458;2023-07-20T18:15:38;23.50;99.90
25112;DHT22;13092;51.996;4.458;2023-07-20T18:18:07;23.10;99.90
25112;DHT22;13092;51.996;4.458;2023-07-20T18:20:35;22.70;99.90
25112;DHT22;13092;51.996;4.458;2023-07-20T18:23:03;22.50;99.90
25112;DHT22;13092;51.996;4.458;2023-07-20T18:25:31;22.30;99.90
25112;DHT22;13092;51.996;4.458;2023-07-20T18:28:02;22.20;99.90
25112;DHT22;13092;51.996;4.458;2023-07-20T18:30:32;22.20;99.90
25112;DHT22;13092;51.996;4.458;2023-07-20T18:33:01;22.00;99.90
25112;DHT22;13092;51.996;4.458;2023-07-20T18:35:31;21.90;99.90
25112;DHT22;13092;51.996;4.458;2023-07-20T18:38:01;21.80;99.90
25112;DHT22;13092;51.996;4.458;2023-07-20T18:40:32;21.80;99.90
25112;DHT22;13092;51.996;4.458;2023-07-20T18:43:03;21.70;99.90
25112;DHT22;13092;51.996;4.458;2023-07-20T18:45:33;21.50;99.90
25112;DHT22;13092;51.996;4.458;2023-07-20T18:48:01;21.50;99.90
25112;DHT22;13092;51.996;4.458;2023-07-20T18:50:29;21.20;99.90
25112;DHT22;13092;51.996;4.458;2023-07-20T18:53:04;21.30;99.90
25112;DHT22;13092;51.996;4.458;2023-07-20T18:55:33;21.30;99.90
25112;DHT22;13092;51.996;4.458;2023-07-20T18:58:02;21.50;99.90
25112;DHT22;13092;51.996;4.458;2023-07-20T19:00:36;21.50;99.90
25112;DHT22;13092;51.996;4.458;2023-07-20T19:03:05;21.40;99.90
25112;DHT22;13092;51.996;4.458;2023-07-20T19:05:38;21.30;99.90
25112;DHT22;13092;51.996;4.458;2023-07-20T19:08:11;21.20;99.90
25112;DHT22;13092;51.996;4.458;2023-07-20T19:10:40;21.00;99.90
25112;DHT22;13092;51.996;4.458;2023-07-20T19:13:10;20.90;99.90
25112;DHT22;13092;51.996;4.458;2023-07-20T19:15:47;20.80;99.90
25112;DHT22;13092;51.996;4.458;2023-07-20T19:18:16;20.80;99.90
25112;DHT22;13092;51.996;4.458;2023-07-20T19:20:44;20.80;99.90
25112;DHT22;13092;51.996;4.458;2023-07-20T19:23:12;20.70;99.90
25112;DHT22;13092;51.996;4.458;2023-07-20T19:25:41;20.70;99.90
25112;DHT22;13092;51.996;4.458;2023-07-20T19:28:09;20.50;99.90
25112;DHT22;13092;51.996;4.458;2023-07-20T19:30:37;20.50;99.90
25112;DHT22;13092;51.996;4.458;2023-07-20T19:33:07;20.50;99.90
25112;DHT22;13092;51.996;4.458;2023-07-20T19:35:35;20.50;99.90
25112;DHT22;13092;51.996;4.458;2023-07-20T19:38:04;20.40;99.90
25112;DHT22;13092;51.996;4.458;2023-07-20T19:40:33;20.30;99.90
25112;DHT22;13092;51.996;4.458;2023-07-20T19:43:02;20.20;99.90
25112;DHT22;13092;51.996;4.458;2023-07-20T19:45:31;20.20;99.90
25112;DHT22;13092;51.996;4.458;2023-07-20T19:48:02;20.20;99.90
25112;DHT22;13092;51.996;4.458;2023-07-20T19:50:35;20.20;99.90
25112;DHT22;13092;51.996;4.458;2023-07-20T19:53:03;20.20;99.90
25112;DHT22;13092;51.996;4.458;2023-07-20T19:55:59;20.20;99.90
25112;DHT22;13092;51.996;4.458;2023-07-20T19:58:33;20.20;99.90
25112;DHT22;13092;51.996;4.458;2023-07-20T20:01:02;20.10;99.90
25112;DHT22;13092;51.996;4.458;2023-07-20T20:03:36;20.10;99.90
25112;DHT22;13092;51.996;4.458;2023-07-20T20:06:09;20.10;99.90
25112;DHT22;13092;51.996;4.458;2023-07-20T20:08:37;20.00;99.90
25112;DHT22;13092;51.996;4.458;2023-07-20T20:11:06;19.80;99.90
25112;DHT22;13092;51.996;4.458;2023-07-20T20:13:37;19.80;99.90
25112;DHT22;13092;51.996;4.458;2023-07-20T20:16:07;19.70;99.90
25112;DHT22;13092;51.996;4.458;2023-07-20T20:18:35;19.60;99.90
25112;DHT22;13092;51.996;4.458;2023-07-20T20:21:11;19.60;99.90
25112;DHT22;13092;51.996;4.458;2023-07-20T20:23:40;19.60;99.90
25112;DHT22;13092;51.996;4.458;2023-07-20T20:26:08;19.60;99.90